sensor_id;sensor_type;location;lat;lon;timestamp;pressure;altitude;pressure_sealevel;temperature;humidity
12146;BME280;6136;47.032;15.398;2023-03-16T00:00:06;97748.59;;;1.63;72.96
12146;BME280;6136;47.032;15.398;2023-03-16T00:02:40;97752.13;;;1.60;73.71
12146;BME280;6136;47.032;15.398;2023-03-16T00:05:09;97748.69;;;1.58;73.43
12146;BME280;6136;47.032;15.398;2023-03-16T00:07:41;97736.78;;;1.48;74.08
12146;BME280;6136;47.032;15.398;2023-03-16T00:10:11;97755.69;;;1.56;74.53
12146;BME280;6136;47.032;15.398;2023-03-16T00:12:39;97754.94;;;1.52;75.04
12146;BME280;6136;47.032;15.398;2023-03-16T00:15:10;97765.31;;;1.55;75.37
12146;BME280;6136;47.032;15.398;2023-03-16T00:17:38;97760.16;;;1.52;75.09
12146;BME280;6136;47.032;15.398;2023-03-16T00:20:07;97755.94;;;1.47;75.75
12146;BME280;6136;47.032;15.398;2023-03-16T00:22:35;97762.94;;;1.45;75.58
12146;BME280;6136;47.032;15.398;2023-03-16T00:25:06;97758.75;;;1.38;76.24
12146;BME280;6136;47.032;15.398;2023-03-16T00:27:34;97751.88;;;1.34;76.35
12146;BME280;6136;47.032;15.398;2023-03-16T00:30:03;97761.34;;;1.39;76.23
12146;BME280;6136;47.032;15.398;2023-03-16T00:32:33;97759.59;;;1.40;77.24
12146;BME280;6136;47.032;15.398;2023-03-16T00:35:04;97753.50;;;1.39;77.53
12146;BME280;6136;47.032;15.398;2023-03-16T00:37:36;97758.91;;;1.32;77.22
12146;BME280;6136;47.032;15.398;2023-03-16T00:40:08;97767.59;;;1.32;77.97
12146;BME280;6136;47.032;15.398;2023-03-16T00:42:37;97759.84;;;1.28;78.83
12146;BME280;6136;47.032;15.398;2023-03-16T00:45:07;97772.28;;;1.16;79.59
12146;BME280;6136;47.032;15.398;2023-03-16T00:47:35;97770.56;;;1.15;80.34
12146;BME280;6136;47.032;15.398;2023-03-16T00:50:04;97767.13;;;1.13;80.78
12146;BME280;6136;47.032;15.398;2023-03-16T00:52:32;97764.34;;;1.21;80.28
12146;BME280;6136;47.032;15.398;2023-03-16T00:55:01;97763.28;;;1.30;81.54
12146;BME280;6136;47.032;15.398;2023-03-16T00:57:31;97757.38;;;1.22;81.15
12146;BME280;6136;47.032;15.398;2023-03-16T01:00:00;97770.09;;;1.37;81.68
12146;BME280;6136;47.032;15.398;2023-03-16T01:02:38;97761.41;;;1.36;81.40
12146;BME280;6136;47.032;15.398;2023-03-16T01:05:07;97771.88;;;1.35;81.70
12146;BME280;6136;47.032;15.398;2023-03-16T01:07:36;97773.63;;;1.34;81.65
12146;BME280;6136;47.032;15.398;2023-03-16T01:10:05;97768.31;;;1.39;81.33
12146;BME280;6136;47.032;15.398;2023-03-16T01:12:34;97779.53;;;1.42;79.18
12146;BME280;6136;47.032;15.398;2023-03-16T01:15:04;97789.03;;;1.46;77.03
12146;BME280;6136;47.032;15.398;2023-03-16T01:17:33;97780.31;;;1.46;76.40
12146;BME280;6136;47.032;15.398;2023-03-16T01:20:02;97781.00;;;1.54;75.83
12146;BME280;6136;47.032;15.398;2023-03-16T01:22:33;97777.53;;;1.53;77.97
12146;BME280;6136;47.032;15.398;2023-03-16T01:25:02;97781.06;;;1.51;77.42
12146;BME280;6136;47.032;15.398;2023-03-16T01:27:31;97778.47;;;1.51;77.69
12146;BME280;6136;47.032;15.398;2023-03-16T01:30:01;97778.25;;;1.60;77.88
12146;BME280;6136;47.032;15.398;2023-03-16T01:32:29;97783.38;;;1.63;77.16
12146;BME280;6136;47.032;15.398;2023-03-16T01:34:57;97776.38;;;1.65;78.08
12146;BME280;6136;47.032;15.398;2023-03-16T01:37:26;97784.25;;;1.64;78.81
12146;BME280;6136;47.032;15.398;2023-03-16T01:40:14;97783.13;;;1.37;79.92
12146;BME280;6136;47.032;15.398;2023-03-16T01:42:47;97776.22;;;1.34;80.61
12146;BME280;6136;47.032;15.398;2023-03-16T01:48:40;97783.97;;;1.39;80.52
12146;BME280;6136;47.032;15.398;2023-03-16T01:51:15;97785.75;;;1.37;80.25
12146;BME280;6136;47.032;15.398;2023-03-16T01:53:48;97785.59;;;1.43;80.00
12146;BME280;6136;47.032;15.398;2023-03-16T01:56:22;97787.66;;;1.29;80.87
12146;BME280;6136;47.032;15.398;2023-03-16T01:58:55;97794.22;;;1.08;81.95
12146;BME280;6136;47.032;15.398;2023-03-16T02:01:25;97795.84;;;1.12;81.86
12146;BME280;6136;47.032;15.398;2023-03-16T02:04:04;97794.16;;;1.11;81.42
12146;BME280;6136;47.032;15.398;2023-03-16T02:06:35;97793.31;;;1.10;81.75
12146;BME280;6136;47.032;15.398;2023-03-16T02:09:04;97789.59;;;1.19;82.37
12146;BME280;6136;47.032;15.398;2023-03-16T02:11:33;97797.50;;;1.17;82.67
12146;BME280;6136;47.032;15.398;2023-03-16T02:14:11;97799.09;;;1.25;82.86
12146;BME280;6136;47.032;15.398;2023-03-16T02:16:41;97791.47;;;1.14;83.25
12146;BME280;6136;47.032;15.398;2023-03-16T02:19:18;97805.25;;;1.21;82.99
12146;BME280;6136;47.032;15.398;2023-03-16T02:21:56;97807.81;;;1.22;83.88
12146;BME280;6136;47.032;15.398;2023-03-16T02:24:29;97811.28;;;1.24;84.64
12146;BME280;6136;47.032;15.398;2023-03-16T02:27:00;97805.06;;;1.30;83.80
12146;BME280;6136;47.032;15.398;2023-03-16T02:29:55;97810.31;;;1.27;83.53
12146;BME280;6136;47.032;15.398;2023-03-16T02:32:29;97815.53;;;1.27;83.21
12146;BME280;6136;47.032;15.398;2023-03-16T02:35:00;97805.19;;;1.24;83.36
12146;BME280;6136;47.032;15.398;2023-03-16T02:37:29;97807.81;;;1.22;82.98
12146;BME280;6136;47.032;15.398;2023-03-16T02:39:59;97815.53;;;1.27;83.39
12146;BME280;6136;47.032;15.398;2023-03-16T02:42:28;97815.69;;;1.21;84.27
12146;BME280;6136;47.032;15.398;2023-03-16T02:44:59;97819.09;;;1.24;83.91
12146;BME280;6136;47.032;15.398;2023-03-16T02:47:34;97817.59;;;1.12;84.19
12146;BME280;6136;47.032;15.398;2023-03-16T02:50:04;97823.91;;;1.02;84.49
12146;BME280;6136;47.032;15.398;2023-03-16T02:52:35;97819.72;;;0.94;84.70
12146;BME280;6136;47.032;15.398;2023-03-16T02:55:05;97821.59;;;0.89;84.43
12146;BME280;6136;47.032;15.398;2023-03-16T02:57:33;97830.06;;;0.98;85.50
12146;BME280;6136;47.032;15.398;2023-03-16T03:00:10;97831.06;;;0.91;85.54
12146;BME280;6136;47.032;15.398;2023-03-16T03:02:45;97835.53;;;0.86;85.79
12146;BME280;6136;47.032;15.398;2023-03-16T03:05:13;97837.13;;;0.93;86.33
12146;BME280;6136;47.032;15.398;2023-03-16T03:07:41;97833.63;;;0.94;86.32
12146;BME280;6136;47.032;15.398;2023-03-16T03:10:10;97828.34;;;0.97;86.27
12146;BME280;6136;47.032;15.398;2023-03-16T03:12:38;97840.50;;;0.98;86.48
12146;BME280;6136;47.032;15.398;2023-03-16T03:15:10;97849.59;;;0.79;86.55
12146;BME280;6136;47.032;15.398;2023-03-16T03:17:46;97853.22;;;0.70;88.76
12146;BME280;6136;47.032;15.398;2023-03-16T03:20:14;97855.19;;;0.59;88.47
12146;BME280;6136;47.032;15.398;2023-03-16T03:22:45;97858.91;;;0.45;89.93
12146;BME280;6136;47.032;15.398;2023-03-16T03:25:15;97861.56;;;0.43;90.27
12146;BME280;6136;47.032;15.398;2023-03-16T03:27:45;97858.09;;;0.43;90.38
12146;BME280;6136;47.032;15.398;2023-03-16T03:30:19;97857.97;;;0.49;89.97
12146;BME280;6136;47.032;15.398;2023-03-16T03:32:47;97864.22;;;0.38;90.60
12146;BME280;6136;47.032;15.398;2023-03-16T03:35:18;97870.09;;;0.51;91.08
12146;BME280;6136;47.032;15.398;2023-03-16T03:37:47;97865.84;;;0.46;91.30
12146;BME280;6136;47.032;15.398;2023-03-16T03:40:17;97865.03;;;0.42;91.39
12146;BME280;6136;47.032;15.398;2023-03-16T03:42:49;97883.28;;;0.44;91.91
12146;BME280;6136;47.032;15.398;2023-03-16T03:45:19;97872.84;;;0.44;92.16
12146;BME280;6136;47.032;15.398;2023-03-16T03:47:47;97872.00;;;0.42;92.39
12146;BME280;6136;47.032;15.398;2023-03-16T03:50:19;97881.53;;;0.43;92.75
12146;BME280;6136;47.032;15.398;2023-03-16T03:53:11;97878.22;;;0.34;92.01
12146;BME280;6136;47.032;15.398;2023-03-16T03:55:59;97886.91;;;0.33;92.12
12146;BME280;6136;47.032;15.398;2023-03-16T03:58:27;97880.97;;;0.25;92.82
12146;BME280;6136;47.032;15.398;2023-03-16T04:00:56;97895.84;;;0.17;93.62
12146;BME280;6136;47.032;15.398;2023-03-16T04:03:25;97888.22;;;0.07;92.84
12146;BME280;6136;47.032;15.398;2023-03-16T04:05:55;97896.19;;;-0.04;93.59
12146;BME280;6136;47.032;15.398;2023-03-16T04:08:23;97895.41;;;-0.09;93.99
12146;BME280;6136;47.032;15.398;2023-03-16T04:10:51;97898.81;;;-0.06;94.25
12146;BME280;6136;47.032;15.398;2023-03-16T04:13:20;97896.28;;;-0.09;93.74
12146;BME280;6136;47.032;15.398;2023-03-16T04:15:48;97904.94;;;-0.08;94.15
12146;BME280;6136;47.032;15.398;2023-03-16T04:18:24;97902.19;;;0.01;95.58
12146;BME280;6136;47.032;15.398;2023-03-16T04:20:52;97906.41;;;0.10;94.76
12146;BME280;6136;47.032;15.398;2023-03-16T04:23:23;97914.22;;;0.10;94.64
12146;BME280;6136;47.032;15.398;2023-03-16T04:25:52;97911.72;;;0.02;94.50
12146;BME280;6136;47.032;15.398;2023-03-16T04:28:21;97915.25;;;-0.01;94.36
12146;BME280;6136;47.032;15.398;2023-03-16T04:30:52;97915.38;;;-0.08;94.43
12146;BME280;6136;47.032;15.398;2023-03-16T04:33:28;97915.44;;;-0.14;94.66
12146;BME280;6136;47.032;15.398;2023-03-16T04:35:56;97918.13;;;-0.20;94.94
12146;BME280;6136;47.032;15.398;2023-03-16T04:38:25;97926.88;;;-0.23;95.15
12146;BME280;6136;47.032;15.398;2023-03-16T04:40:56;97933.06;;;-0.31;96.00
12146;BME280;6136;47.032;15.398;2023-03-16T04:43:29;97931.34;;;-0.34;95.47
12146;BME280;6136;47.032;15.398;2023-03-16T04:46:06;97935.69;;;-0.34;95.89
12146;BME280;6136;47.032;15.398;2023-03-16T04:48:36;97931.34;;;-0.35;95.63
12146;BME280;6136;47.032;15.398;2023-03-16T04:51:05;97944.59;;;-0.52;96.34
12146;BME280;6136;47.032;15.398;2023-03-16T04:53:37;97956.06;;;-0.67;96.05
12146;BME280;6136;47.032;15.398;2023-03-16T04:56:13;97957.84;;;-0.73;96.97
12146;BME280;6136;47.032;15.398;2023-03-16T04:58:51;97969.09;;;-0.68;97.24
12146;BME280;6136;47.032;15.398;2023-03-16T05:01:24;97966.75;;;-0.94;97.24
12146;BME280;6136;47.032;15.398;2023-03-16T05:03:57;97971.06;;;-0.90;98.58
12146;BME280;6136;47.032;15.398;2023-03-16T05:06:26;97966.72;;;-0.90;98.37
12146;BME280;6136;47.032;15.398;2023-03-16T05:08:58;97968.50;;;-0.95;99.02
12146;BME280;6136;47.032;15.398;2023-03-16T05:11:28;97971.06;;;-0.92;99.09
12146;BME280;6136;47.032;15.398;2023-03-16T05:14:00;97974.50;;;-0.88;99.64
12146;BME280;6136;47.032;15.398;2023-03-16T05:16:30;97971.84;;;-0.82;99.96
12146;BME280;6136;47.032;15.398;2023-03-16T05:19:00;97969.31;;;-0.90;100.00
12146;BME280;6136;47.032;15.398;2023-03-16T05:21:31;97976.22;;;-0.86;100.00
12146;BME280;6136;47.032;15.398;2023-03-16T05:24:03;97972.63;;;-0.75;100.00
12146;BME280;6136;47.032;15.398;2023-03-16T05:26:32;97971.69;;;-0.67;100.00
12146;BME280;6136;47.032;15.398;2023-03-16T05:29:01;97975.09;;;-0.62;99.88
12146;BME280;6136;47.032;15.398;2023-03-16T05:31:30;97977.63;;;-0.57;99.43
12146;BME280;6136;47.032;15.398;2023-03-16T05:34:02;97976.81;;;-0.61;99.07
12146;BME280;6136;47.032;15.398;2023-03-16T05:36:31;97968.94;;;-0.56;99.68
12146;BME280;6136;47.032;15.398;2023-03-16T05:39:07;97988.69;;;-0.40;99.70
12146;BME280;6136;47.032;15.398;2023-03-16T05:41:39;98003.38;;;-0.33;100.00
12146;BME280;6136;47.032;15.398;2023-03-16T05:44:19;98002.34;;;-0.21;98.60
12146;BME280;6136;47.032;15.398;2023-03-16T05:47:13;97998.66;;;-0.05;97.35
12146;BME280;6136;47.032;15.398;2023-03-16T05:49:47;98002.09;;;0.00;95.96
12146;BME280;6136;47.032;15.398;2023-03-16T05:52:30;97990.75;;;0.01;96.33
12146;BME280;6136;47.032;15.398;2023-03-16T05:55:05;97996.81;;;0.03;96.78
12146;BME280;6136;47.032;15.398;2023-03-16T05:57:33;97987.03;;;0.20;96.72
12146;BME280;6136;47.032;15.398;2023-03-16T06:00:04;97996.25;;;0.43;95.51
12146;BME280;6136;47.032;15.398;2023-03-16T06:02:38;97990.78;;;0.58;95.07
12146;BME280;6136;47.032;15.398;2023-03-16T06:05:08;97990.63;;;0.67;93.99
12146;BME280;6136;47.032;15.398;2023-03-16T06:07:40;97997.28;;;0.86;94.46
12146;BME280;6136;47.032;15.398;2023-03-16T06:10:11;97993.41;;;1.08;92.98
12146;BME280;6136;47.032;15.398;2023-03-16T06:12:40;97996.47;;;1.32;91.63
12146;BME280;6136;47.032;15.398;2023-03-16T06:15:09;97996.94;;;1.52;89.54
12146;BME280;6136;47.032;15.398;2023-03-16T06:17:38;98007.94;;;1.68;88.27
12146;BME280;6136;47.032;15.398;2023-03-16T06:20:11;98015.44;;;1.84;87.42
12146;BME280;6136;47.032;15.398;2023-03-16T06:22:43;98008.06;;;2.03;85.28
12146;BME280;6136;47.032;15.398;2023-03-16T06:25:12;98010.91;;;2.32;82.32
12146;BME280;6136;47.032;15.398;2023-03-16T06:27:43;98021.47;;;2.66;81.37
12146;BME280;6136;47.032;15.398;2023-03-16T06:30:15;98016.53;;;2.90;78.07
12146;BME280;6136;47.032;15.398;2023-03-16T06:32:43;98020.03;;;3.24;76.42
12146;BME280;6136;47.032;15.398;2023-03-16T06:35:14;98026.09;;;3.59;75.15
12146;BME280;6136;47.032;15.398;2023-03-16T06:37:56;98030.66;;;3.83;73.04
12146;BME280;6136;47.032;15.398;2023-03-16T06:40:43;98035.28;;;4.04;71.74
12146;BME280;6136;47.032;15.398;2023-03-16T06:43:11;98033.78;;;4.25;71.01
12146;BME280;6136;47.032;15.398;2023-03-16T06:45:42;98041.56;;;4.29;69.85
12146;BME280;6136;47.032;15.398;2023-03-16T06:48:11;98034.56;;;4.58;69.43
12146;BME280;6136;47.032;15.398;2023-03-16T06:50:40;98029.25;;;4.87;66.72
12146;BME280;6136;47.032;15.398;2023-03-16T06:53:09;98039.19;;;5.04;65.32
12146;BME280;6136;47.032;15.398;2023-03-16T06:55:38;98043.50;;;5.58;64.41
12146;BME280;6136;47.032;15.398;2023-03-16T06:58:07;98036.66;;;6.72;60.13
12146;BME280;6136;47.032;15.398;2023-03-16T07:00:35;98033.34;;;8.32;54.91
12146;BME280;6136;47.032;15.398;2023-03-16T07:03:04;98025.41;;;9.93;48.82
12146;BME280;6136;47.032;15.398;2023-03-16T07:05:33;98041.56;;;11.33;45.79
12146;BME280;6136;47.032;15.398;2023-03-16T07:08:04;98037.81;;;12.25;43.41
12146;BME280;6136;47.032;15.398;2023-03-16T07:10:32;98038.41;;;13.40;41.04
12146;BME280;6136;47.032;15.398;2023-03-16T07:13:00;98038.47;;;12.71;41.41
12146;BME280;6136;47.032;15.398;2023-03-16T07:15:28;98026.72;;;13.02;40.54
12146;BME280;6136;47.032;15.398;2023-03-16T07:17:57;98034.72;;;12.88;39.82
12146;BME280;6136;47.032;15.398;2023-03-16T07:20:26;98035.53;;;13.43;38.84
12146;BME280;6136;47.032;15.398;2023-03-16T07:22:59;98035.28;;;13.60;38.58
12146;BME280;6136;47.032;15.398;2023-03-16T07:25:29;98046.13;;;13.31;38.81
12146;BME280;6136;47.032;15.398;2023-03-16T07:27:58;98050.03;;;10.92;42.56
12146;BME280;6136;47.032;15.398;2023-03-16T07:30:32;98047.38;;;11.99;39.93
12146;BME280;6136;47.032;15.398;2023-03-16T07:33:00;98034.19;;;13.24;38.09
12146;BME280;6136;47.032;15.398;2023-03-16T07:35:30;98030.44;;;15.65;34.30
12146;BME280;6136;47.032;15.398;2023-03-16T07:37:59;98019.22;;;16.52;32.82
12146;BME280;6136;47.032;15.398;2023-03-16T07:40:28;98026.13;;;16.99;31.04
12146;BME280;6136;47.032;15.398;2023-03-16T07:43:05;98025.13;;;17.66;29.72
12146;BME280;6136;47.032;15.398;2023-03-16T07:45:35;98020.44;;;16.71;31.16
12146;BME280;6136;47.032;15.398;2023-03-16T07:48:03;98026.44;;;18.54;28.65
12146;BME280;6136;47.032;15.398;2023-03-16T07:50:46;98018.41;;;19.44;26.48
12146;BME280;6136;47.032;15.398;2023-03-16T07:53:15;98024.69;;;18.44;28.45
12146;BME280;6136;47.032;15.398;2023-03-16T07:55:50;98016.13;;;17.56;28.24
12146;BME280;6136;47.032;15.398;2023-03-16T07:58:18;98022.50;;;18.07;28.90
12146;BME280;6136;47.032;15.398;2023-03-16T08:00:48;98021.28;;;19.03;26.63
12146;BME280;6136;47.032;15.398;2023-03-16T08:03:18;98026.34;;;18.56;26.40
12146;BME280;6136;47.032;15.398;2023-03-16T08:05:46;98033.25;;;17.75;28.54
12146;BME280;6136;47.032;15.398;2023-03-16T08:08:15;98033.47;;;18.04;27.82
12146;BME280;6136;47.032;15.398;2023-03-16T08:10:46;98029.09;;;18.03;26.93
12146;BME280;6136;47.032;15.398;2023-03-16T08:13:19;98030.91;;;16.85;28.05
12146;BME280;6136;47.032;15.398;2023-03-16T08:15:49;98032.66;;;19.25;26.44
12146;BME280;6136;47.032;15.398;2023-03-16T08:18:33;98033.59;;;18.65;26.46
12146;BME280;6136;47.032;15.398;2023-03-16T08:21:02;98030.91;;;19.64;26.67
12146;BME280;6136;47.032;15.398;2023-03-16T08:23:30;98023.41;;;19.68;25.29
12146;BME280;6136;47.032;15.398;2023-03-16T08:25:59;98026.75;;;19.41;25.02
12146;BME280;6136;47.032;15.398;2023-03-16T08:28:30;98027.69;;;17.88;25.26
12146;BME280;6136;47.032;15.398;2023-03-16T08:31:00;98028.13;;;16.64;27.11
12146;BME280;6136;47.032;15.398;2023-03-16T08:33:39;98031.94;;;17.70;25.24
12146;BME280;6136;47.032;15.398;2023-03-16T08:36:11;98037.16;;;18.54;25.41
12146;BME280;6136;47.032;15.398;2023-03-16T08:38:44;98040.19;;;19.31;25.32
12146;BME280;6136;47.032;15.398;2023-03-16T08:41:34;98037.06;;;18.86;24.62
12146;BME280;6136;47.032;15.398;2023-03-16T08:44:09;98033.88;;;18.20;25.10
12146;BME280;6136;47.032;15.398;2023-03-16T08:46:38;98036.47;;;18.83;24.08
12146;BME280;6136;47.032;15.398;2023-03-16T08:49:08;98038.75;;;19.37;22.29
12146;BME280;6136;47.032;15.398;2023-03-16T08:51:36;98027.63;;;20.28;21.45
12146;BME280;6136;47.032;15.398;2023-03-16T08:54:05;98016.84;;;21.12;21.72
12146;BME280;6136;47.032;15.398;2023-03-16T08:56:33;98024.66;;;20.78;21.76
12146;BME280;6136;47.032;15.398;2023-03-16T08:59:01;98035.16;;;19.96;21.73
12146;BME280;6136;47.032;15.398;2023-03-16T09:01:30;98040.81;;;20.12;21.79
12146;BME280;6136;47.032;15.398;2023-03-16T09:03:59;98039.13;;;19.72;22.18
12146;BME280;6136;47.032;15.398;2023-03-16T09:06:29;98034.78;;;20.66;20.88
12146;BME280;6136;47.032;15.398;2023-03-16T09:08:58;98034.91;;;20.74;21.45
12146;BME280;6136;47.032;15.398;2023-03-16T09:11:26;98031.78;;;20.69;22.00
12146;BME280;6136;47.032;15.398;2023-03-16T09:13:56;98038.09;;;21.24;20.45
12146;BME280;6136;47.032;15.398;2023-03-16T09:16:25;98046.28;;;21.33;20.80
12146;BME280;6136;47.032;15.398;2023-03-16T09:18:55;98038.63;;;22.08;20.65
12146;BME280;6136;47.032;15.398;2023-03-16T09:21:24;98041.88;;;22.38;20.82
12146;BME280;6136;47.032;15.398;2023-03-16T09:23:52;98037.72;;;22.69;19.71
12146;BME280;6136;47.032;15.398;2023-03-16T09:26:21;98046.06;;;22.06;19.02
12146;BME280;6136;47.032;15.398;2023-03-16T09:28:50;98041.75;;;20.96;19.20
12146;BME280;6136;47.032;15.398;2023-03-16T09:31:19;98049.31;;;20.83;20.38
12146;BME280;6136;47.032;15.398;2023-03-16T09:33:47;98042.25;;;20.82;19.46
12146;BME280;6136;47.032;15.398;2023-03-16T09:36:17;98048.75;;;19.56;20.72
12146;BME280;6136;47.032;15.398;2023-03-16T09:38:46;98054.78;;;18.98;22.07
12146;BME280;6136;47.032;15.398;2023-03-16T09:41:25;98057.03;;;19.43;21.46
12146;BME280;6136;47.032;15.398;2023-03-16T09:44:03;98062.47;;;20.01;19.80
12146;BME280;6136;47.032;15.398;2023-03-16T09:46:35;98057.25;;;19.90;19.29
12146;BME280;6136;47.032;15.398;2023-03-16T09:49:05;98066.16;;;20.29;20.21
12146;BME280;6136;47.032;15.398;2023-03-16T09:51:42;98053.28;;;21.25;19.33
12146;BME280;6136;47.032;15.398;2023-03-16T09:54:19;98058.78;;;22.40;17.26
12146;BME280;6136;47.032;15.398;2023-03-16T09:56:51;98053.16;;;23.03;17.68
12146;BME280;6136;47.032;15.398;2023-03-16T09:59:21;98042.03;;;23.14;18.39
12146;BME280;6136;47.032;15.398;2023-03-16T10:01:59;98056.97;;;23.68;17.19
12146;BME280;6136;47.032;15.398;2023-03-16T10:04:40;98056.19;;;24.65;16.44
12146;BME280;6136;47.032;15.398;2023-03-16T10:07:18;98055.31;;;25.36;15.81
12146;BME280;6136;47.032;15.398;2023-03-16T10:09:55;98058.06;;;24.24;16.23
12146;BME280;6136;47.032;15.398;2023-03-16T10:12:29;98047.44;;;23.14;17.07
12146;BME280;6136;47.032;15.398;2023-03-16T10:15:02;98060.50;;;22.23;18.19
12146;BME280;6136;47.032;15.398;2023-03-16T10:17:37;98054.16;;;23.02;17.17
12146;BME280;6136;47.032;15.398;2023-03-16T10:20:10;98057.22;;;20.47;19.51
12146;BME280;6136;47.032;15.398;2023-03-16T10:22:45;98059.50;;;21.71;18.92
12146;BME280;6136;47.032;15.398;2023-03-16T10:25:18;98060.91;;;22.54;17.77
12146;BME280;6136;47.032;15.398;2023-03-16T10:27:49;98052.69;;;22.81;16.73
12146;BME280;6136;47.032;15.398;2023-03-16T10:30:25;98054.41;;;22.39;18.51
12146;BME280;6136;47.032;15.398;2023-03-16T10:32:55;98042.81;;;23.40;17.82
12146;BME280;6136;47.032;15.398;2023-03-16T10:35:39;98048.69;;;22.94;17.95
12146;BME280;6136;47.032;15.398;2023-03-16T10:38:26;98048.38;;;24.05;15.71
12146;BME280;6136;47.032;15.398;2023-03-16T10:40:55;98046.69;;;23.96;16.94
12146;BME280;6136;47.032;15.398;2023-03-16T10:43:23;98056.19;;;24.24;15.78
12146;BME280;6136;47.032;15.398;2023-03-16T10:45:57;98049.78;;;24.42;16.54
12146;BME280;6136;47.032;15.398;2023-03-16T10:48:30;98045.59;;;25.10;15.09
12146;BME280;6136;47.032;15.398;2023-03-16T10:51:04;98054.81;;;24.12;15.68
12146;BME280;6136;47.032;15.398;2023-03-16T10:53:38;98052.84;;;23.14;16.46
12146;BME280;6136;47.032;15.398;2023-03-16T10:56:10;98048.38;;;23.89;15.92
12146;BME280;6136;47.032;15.398;2023-03-16T10:58:41;98047.50;;;24.77;14.58
12146;BME280;6136;47.032;15.398;2023-03-16T11:01:10;98052.66;;;22.56;17.71
12146;BME280;6136;47.032;15.398;2023-03-16T11:03:40;98041.91;;;23.23;16.89
12146;BME280;6136;47.032;15.398;2023-03-16T11:06:18;98054.16;;;24.18;15.20
12146;BME280;6136;47.032;15.398;2023-03-16T11:08:50;98044.66;;;26.19;13.67
12146;BME280;6136;47.032;15.398;2023-03-16T11:11:23;98044.91;;;25.08;14.67
12146;BME280;6136;47.032;15.398;2023-03-16T11:13:56;98047.91;;;24.34;15.79
12146;BME280;6136;47.032;15.398;2023-03-16T11:16:29;98034.94;;;22.79;16.90
12146;BME280;6136;47.032;15.398;2023-03-16T11:19:02;98038.25;;;22.99;16.44
12146;BME280;6136;47.032;15.398;2023-03-16T11:21:40;98035.44;;;23.58;17.93
12146;BME280;6136;47.032;15.398;2023-03-16T11:24:18;98026.22;;;22.41;15.90
12146;BME280;6136;47.032;15.398;2023-03-16T11:26:53;98025.84;;;22.62;16.41
12146;BME280;6136;47.032;15.398;2023-03-16T11:29:26;98029.91;;;23.68;15.20
12146;BME280;6136;47.032;15.398;2023-03-16T11:31:59;98034.03;;;23.38;14.97
12146;BME280;6136;47.032;15.398;2023-03-16T11:34:29;98033.03;;;23.47;14.88
12146;BME280;6136;47.032;15.398;2023-03-16T11:37:04;98023.28;;;22.53;15.91
12146;BME280;6136;47.032;15.398;2023-03-16T11:39:48;98028.16;;;22.75;15.38
12146;BME280;6136;47.032;15.398;2023-03-16T11:42:27;98024.16;;;22.61;14.98
12146;BME280;6136;47.032;15.398;2023-03-16T11:45:02;98027.56;;;23.31;15.79
12146;BME280;6136;47.032;15.398;2023-03-16T11:48:05;98025.72;;;21.49;16.35
12146;BME280;6136;47.032;15.398;2023-03-16T11:50:46;98019.19;;;21.34;17.15
12146;BME280;6136;47.032;15.398;2023-03-16T11:53:29;98014.88;;;21.59;16.70
12146;BME280;6136;47.032;15.398;2023-03-16T11:56:10;98010.44;;;21.22;17.00
12146;BME280;6136;47.032;15.398;2023-03-16T11:59:04;98004.56;;;21.27;17.66
12146;BME280;6136;47.032;15.398;2023-03-16T12:01:46;98005.75;;;21.24;17.71
12146;BME280;6136;47.032;15.398;2023-03-16T12:04:53;97994.06;;;22.04;15.91
12146;BME280;6136;47.032;15.398;2023-03-16T12:07:40;97993.25;;;23.23;14.18
12146;BME280;6136;47.032;15.398;2023-03-16T12:10:21;97983.75;;;21.47;16.37
12146;BME280;6136;47.032;15.398;2023-03-16T12:13:03;97982.47;;;22.90;14.67
12146;BME280;6136;47.032;15.398;2023-03-16T12:15:37;97978.53;;;23.18;15.38
12146;BME280;6136;47.032;15.398;2023-03-16T12:18:14;97974.19;;;25.49;13.05
12146;BME280;6136;47.032;15.398;2023-03-16T12:20:49;97976.09;;;24.46;13.01
12146;BME280;6136;47.032;15.398;2023-03-16T12:23:21;97972.53;;;25.09;13.14
12146;BME280;6136;47.032;15.398;2023-03-16T12:25:55;97978.94;;;23.47;14.28
12146;BME280;6136;47.032;15.398;2023-03-16T12:28:28;97976.00;;;21.87;16.27
12146;BME280;6136;47.032;15.398;2023-03-16T12:31:04;97960.94;;;22.20;17.09
12146;BME280;6136;47.032;15.398;2023-03-16T12:33:51;97963.78;;;23.71;16.56
12146;BME280;6136;47.032;15.398;2023-03-16T12:36:42;97961.56;;;22.66;15.73
12146;BME280;6136;47.032;15.398;2023-03-16T12:39:16;97957.47;;;22.88;15.35
12146;BME280;6136;47.032;15.398;2023-03-16T12:42:00;97959.50;;;22.94;14.39
12146;BME280;6136;47.032;15.398;2023-03-16T12:44:37;97960.91;;;21.59;15.44
12146;BME280;6136;47.032;15.398;2023-03-16T12:47:12;97949.63;;;20.56;16.98
12146;BME280;6136;47.032;15.398;2023-03-16T12:49:45;97953.41;;;20.63;15.84
12146;BME280;6136;47.032;15.398;2023-03-16T12:52:13;97952.53;;;20.44;16.88
12146;BME280;6136;47.032;15.398;2023-03-16T12:54:52;97958.78;;;20.35;16.90
12146;BME280;6136;47.032;15.398;2023-03-16T12:57:23;97945.03;;;21.20;17.22
12146;BME280;6136;47.032;15.398;2023-03-16T12:59:58;97942.13;;;21.49;16.18
12146;BME280;6136;47.032;15.398;2023-03-16T13:02:29;97941.75;;;21.26;15.52
12146;BME280;6136;47.032;15.398;2023-03-16T13:05:00;97937.41;;;21.51;14.63
12146;BME280;6136;47.032;15.398;2023-03-16T13:07:30;97932.34;;;21.48;15.22
12146;BME280;6136;47.032;15.398;2023-03-16T13:10:01;97930.47;;;22.96;14.68
12146;BME280;6136;47.032;15.398;2023-03-16T13:12:35;97926.56;;;22.56;16.03
12146;BME280;6136;47.032;15.398;2023-03-16T13:15:27;97922.81;;;22.49;14.24
12146;BME280;6136;47.032;15.398;2023-03-16T13:18:18;97919.72;;;21.92;16.23
12146;BME280;6136;47.032;15.398;2023-03-16T13:20:56;97922.22;;;21.86;15.51
12146;BME280;6136;47.032;15.398;2023-03-16T13:23:26;97929.47;;;21.67;15.34
12146;BME280;6136;47.032;15.398;2023-03-16T13:26:04;97932.78;;;22.23;14.48
12146;BME280;6136;47.032;15.398;2023-03-16T13:28:35;97931.97;;;22.98;14.03
12146;BME280;6136;47.032;15.398;2023-03-16T13:31:18;97924.06;;;23.13;13.81
12146;BME280;6136;47.032;15.398;2023-03-16T13:33:49;97926.41;;;22.32;14.30
12146;BME280;6136;47.032;15.398;2023-03-16T13:36:20;97914.38;;;22.52;14.21